Time;durP1;ratioP1;P1;durP2;ratioP2;P2;SDS_P1;SDS_P2;PMS_P1;PMS_P2;Temp;Humidity;BMP_temperature;BMP_pressure;BME280_temperature;BME280_humidity;BME280_pressure;Samples;Min_cycle;Max_cycle;Signal;HPM_P1;HPM_P2
2023/08/25 00:02:08;;;;;;;3.77;1.83;;;23.30;91.10;23.00;96378.00;;;;5031467;28;20225;-82
2023/08/25 00:04:37;;;;;;;3.87;1.87;;;23.30;91.20;23.00;96384.00;;;;5006137;28;20197;-82
2023/08/25 00:07:04;;;;;;;3.60;1.93;;;23.30;91.50;23.00;96377.00;;;;5015634;28;20677;-82
2023/08/25 00:09:31;;;;;;;3.33;2.10;;;23.40;91.20;23.00;96390.00;;;;5020618;28;20292;-82
2023/08/25 00:11:58;;;;;;;3.17;1.40;;;23.40;91.10;23.00;96376.00;;;;5028800;28;20205;-82
2023/08/25 00:14:26;;;;;;;2.80;1.90;;;23.40;91.10;23.10;96382.00;;;;5023543;28;20656;-82
2023/08/25 00:16:53;;;;;;;2.07;1.70;;;23.40;91.50;23.10;96387.00;;;;5028583;28;20216;-82
2023/08/25 00:19:20;;;;;;;3.67;1.70;;;23.50;91.20;23.10;96383.00;;;;5026802;28;20257;-82
2023/08/25 00:21:49;;;;;;;3.00;1.83;;;23.50;91.20;23.10;96388.00;;;;5033936;28;20211;-82
2023/08/25 00:24:16;;;;;;;2.50;1.90;;;23.50;91.40;23.10;96375.00;;;;5020314;28;20663;-82
2023/08/25 00:26:43;;;;;;;2.77;1.43;;;23.50;91.10;23.10;96389.00;;;;5036051;28;20797;-82
2023/08/25 00:29:10;;;;;;;4.03;1.73;;;23.60;91.10;23.20;96370.00;;;;5020672;28;20725;-82
2023/08/25 00:31:37;;;;;;;2.97;1.50;;;23.60;91.10;23.20;96366.00;;;;5025196;28;20203;-82
2023/08/25 00:34:05;;;;;;;3.57;1.60;;;23.60;91.20;23.20;96355.00;;;;5018846;28;20194;-82
2023/08/25 00:36:33;;;;;;;1.47;1.30;;;23.60;91.10;23.20;96364.00;;;;5026469;28;20248;-82
2023/08/25 00:39:01;;;;;;;1.70;1.53;;;23.60;91.10;23.20;96372.00;;;;5033727;28;20287;-82
2023/08/25 00:41:29;;;;;;;3.20;2.10;;;23.60;91.10;23.20;96364.00;;;;5030558;28;20280;-82
2023/08/25 00:43:56;;;;;;;3.20;1.97;;;23.60;91.10;23.20;96367.00;;;;5035744;28;20308;-82
2023/08/25 00:46:24;;;;;;;1.70;1.60;;;23.60;91.00;23.30;96357.00;;;;5031871;28;20227;-81
2023/08/25 00:48:51;;;;;;;3.40;1.50;;;23.70;91.10;23.30;96370.00;;;;5028532;28;20213;-81
2023/08/25 00:51:20;;;;;;;1.87;1.33;;;23.70;91.00;23.30;96363.00;;;;5034587;28;20232;-81
2023/08/25 00:53:47;;;;;;;3.50;1.50;;;23.70;91.10;23.30;96377.00;;;;5027441;28;20205;-81
2023/08/25 00:56:19;;;;;;;1.60;1.20;;;23.70;91.10;23.30;96380.00;;;;5024314;28;20218;-81
2023/08/25 00:58:46;;;;;;;2.30;1.53;;;23.70;91.00;23.30;96371.00;;;;5042822;28;20204;-81
2023/08/25 01:01:14;;;;;;;2.87;1.40;;;23.70;91.00;23.30;96368.00;;;;5025023;28;20290;-81
2023/08/25 01:03:42;;;;;;;2.90;1.57;;;23.70;91.00;23.30;96364.00;;;;5033584;28;20832;-81
2023/08/25 01:06:09;;;;;;;2.90;1.70;;;23.80;91.00;23.30;96354.00;;;;5029705;28;20222;-81
2023/08/25 01:08:39;;;;;;;3.97;1.80;;;23.80;91.00;23.30;96349.00;;;;5028851;28;20204;-81
2023/08/25 01:11:26;;;;;;;1.77;1.47;;;23.80;91.00;23.30;96346.00;;;;5005112;28;20201;-81
2023/08/25 01:14:09;;;;;;;1.83;1.50;;;23.80;90.90;23.30;96329.00;;;;5035532;28;20215;-81
2023/08/25 01:16:41;;;;;;;2.20;1.27;;;23.80;91.00;23.40;96342.00;;;;5031004;28;20245;-80
2023/08/25 01:19:37;;;;;;;2.70;1.60;;;23.80;91.00;23.40;96346.00;;;;5032434;28;20646;-80
2023/08/25 01:22:14;;;;;;;1.70;1.40;;;23.80;90.90;23.30;96339.00;;;;5029062;28;20332;-81
2023/08/25 01:24:47;;;;;;;2.30;1.50;;;23.80;90.80;23.30;96341.00;;;;5018562;28;20201;-81
2023/08/25 01:27:16;;;;;;;1.90;1.40;;;23.80;90.80;23.30;96325.00;;;;5013783;28;20575;-81
2023/08/25 01:29:44;;;;;;;6.13;1.47;;;23.80;90.80;23.40;96323.00;;;;5020828;28;20198;-81
2023/08/25 01:32:11;;;;;;;2.23;1.77;;;23.80;90.80;23.30;96325.00;;;;5020898;28;20204;-81
2023/08/25 01:34:39;;;;;;;2.83;1.60;;;23.80;90.80;23.40;96323.00;;;;5021029;28;20196;-81
2023/08/25 01:37:17;;;;;;;2.20;1.70;;;23.80;90.80;23.30;96318.00;;;;5027933;28;20202;-81
2023/08/25 01:39:50;;;;;;;5.03;1.93;;;23.80;90.70;23.30;96308.00;;;;5026324;28;20206;-81
2023/08/25 01:42:24;;;;;;;4.00;1.60;;;23.70;90.60;23.30;96308.00;;;;5024264;28;20204;-81
2023/08/25 01:44:53;;;;;;;2.53;1.67;;;23.80;90.70;23.30;96303.00;;;;5025245;28;20205;-81
2023/08/25 01:47:25;;;;;;;1.67;1.50;;;23.80;90.70;23.30;96293.00;;;;5018877;28;20214;-81
2023/08/25 01:49:54;;;;;;;2.27;1.57;;;23.80;90.80;23.30;96296.00;;;;5018034;28;20616;-80
2023/08/25 01:52:22;;;;;;;2.03;1.50;;;23.80;90.80;23.30;96294.00;;;;5021001;28;20202;-80
2023/08/25 01:54:50;;;;;;;1.77;1.33;;;23.80;90.90;23.40;96286.00;;;;5022137;28;20224;-80
2023/08/25 01:57:21;;;;;;;1.83;1.40;;;23.80;91.00;23.40;96287.00;;;;5013025;28;20200;-81
2023/08/25 01:59:48;;;;;;;1.70;1.60;;;23.80;91.00;23.40;96281.00;;;;5021662;28;20305;-80
2023/08/25 02:02:15;;;;;;;3.67;1.93;;;23.80;91.00;23.40;96281.00;;;;5027579;28;20232;-81
2023/08/25 02:04:42;;;;;;;2.50;1.53;;;23.80;90.90;23.40;96271.00;;;;5003401;28;20201;-81
2023/08/25 02:07:09;;;;;;;1.23;1.13;;;23.80;90.90;23.40;96283.00;;;;5017253;28;20200;-80
2023/08/25 02:09:37;;;;;;;1.60;1.50;;;23.80;91.00;23.40;96281.00;;;;5007491;28;20196;-80
2023/08/25 02:12:04;;;;;;;5.13;1.70;;;23.80;91.00;23.40;96276.00;;;;5022270;28;20572;-80
2023/08/25 02:14:33;;;;;;;2.50;1.53;;;23.80;91.00;23.40;96273.00;;;;5024136;28;20671;-80
2023/08/25 02:17:01;;;;;;;1.83;1.33;;;23.80;91.00;23.40;96264.00;;;;5014947;28;20226;-80
2023/08/25 02:19:28;;;;;;;1.53;1.33;;;23.80;91.00;23.50;96264.00;;;;5027116;28;20656;-80
2023/08/25 02:21:56;;;;;;;4.00;1.63;;;23.80;91.00;23.40;96263.00;;;;5035868;28;20664;-80
2023/08/25 02:24:23;;;;;;;1.97;1.23;;;23.90;91.10;23.50;96257.00;;;;5007585;28;20221;-80
2023/08/25 02:26:50;;;;;;;4.13;1.53;;;23.80;91.30;23.50;96260.00;;;;5030498;28;20224;-79
2023/08/25 02:29:17;;;;;;;1.47;1.37;;;23.90;91.00;23.50;96257.00;;;;5033427;28;20197;-80
2023/08/25 02:31:46;;;;;;;2.73;1.50;;;23.80;90.90;23.40;96260.00;;;;5023593;28;20213;-80
2023/08/25 02:34:13;;;;;;;1.47;1.37;;;23.80;90.80;23.40;96260.00;;;;5015734;28;20219;-80
2023/08/25 02:36:40;;;;;;;2.63;1.43;;;23.80;90.80;23.40;96256.00;;;;5028736;28;20594;-80
2023/08/25 02:39:07;;;;;;;2.27;1.40;;;23.90;90.90;23.40;96254.00;;;;5025988;28;20576;-80
2023/08/25 02:41:34;;;;;;;2.20;1.40;;;23.80;90.90;23.40;96253.00;;;;5027174;28;20195;-80
2023/08/25 02:44:01;;;;;;;1.80;1.60;;;23.80;91.00;23.40;96254.00;;;;5026853;28;20714;-80
2023/08/25 02:46:28;;;;;;;2.73;1.40;;;23.80;90.90;23.40;96255.00;;;;5023981;28;20286;-80
2023/08/25 02:48:57;;;;;;;2.73;1.60;;;23.80;90.90;23.40;96253.00;;;;5025478;28;20180;-80
2023/08/25 02:51:24;;;;;;;1.90;1.50;;;23.80;90.90;23.40;96246.00;;;;5025039;28;20193;-80
2023/08/25 02:53:51;;;;;;;2.07;1.50;;;23.80;90.90;23.40;96243.00;;;;5017791;28;20927;-80
2023/08/25 02:56:19;;;;;;;4.00;1.57;;;23.80;90.90;23.40;96236.00;;;;5022732;28;20568;-80
2023/08/25 02:58:46;;;;;;;2.43;1.50;;;23.80;90.90;23.40;96231.00;;;;5024916;28;20227;-80
2023/08/25 03:01:13;;;;;;;2.50;1.50;;;23.80;91.00;23.40;96242.00;;;;5026001;28;20651;-80
2023/08/25 03:03:41;;;;;;;5.93;1.60;;;23.80;91.00;23.40;96229.00;;;;5030235;28;20718;-80
2023/08/25 03:06:09;;;;;;;3.13;1.50;;;23.80;91.10;23.40;96219.00;;;;5024484;28;20683;-80
2023/08/25 03:08:36;;;;;;;2.80;1.47;;;23.80;91.00;23.40;96218.00;;;;5027482;28;20203;-80
2023/08/25 03:11:04;;;;;;;1.40;1.23;;;23.80;91.10;23.40;96216.00;;;;5034634;28;20288;-80
2023/08/25 03:13:31;;;;;;;1.53;1.40;;;23.80;91.20;23.40;96222.00;;;;5015376;28;20208;-80
2023/08/25 03:16:01;;;;;;;1.93;1.57;;;23.80;91.10;23.40;96219.00;;;;5023699;28;20212;-80
2023/08/25 03:18:28;;;;;;;2.13;1.37;;;23.80;91.10;23.40;96223.00;;;;5022594;28;20659;-80
2023/08/25 03:20:56;;;;;;;2.30;1.50;;;23.80;91.10;23.40;96222.00;;;;5028832;28;20203;-80
2023/08/25 03:23:24;;;;;;;2.90;1.67;;;23.80;91.00;23.40;96228.00;;;;5022372;28;20717;-80
2023/08/25 03:25:51;;;;;;;3.93;1.37;;;23.80;90.80;23.30;96219.00;;;;5022201;28;20232;-79
2023/08/25 03:28:19;;;;;;;3.83;1.87;;;23.70;90.90;23.30;96221.00;;;;5030509;28;20211;-80
2023/08/25 03:30:46;;;;;;;4.03;1.20;;;23.70;90.80;23.30;96228.00;;;;5020327;28;20655;-80
2023/08/25 03:33:13;;;;;;;1.97;1.50;;;23.70;91.10;23.30;96223.00;;;;5031476;28;20573;-80
2023/08/25 03:35:40;;;;;;;3.23;1.60;;;23.70;90.70;23.30;96210.00;;;;5025877;28;20239;-80
2023/08/25 03:38:08;;;;;;;1.50;1.40;;;23.70;91.10;23.30;96216.00;;;;5023856;28;20199;-80
2023/08/25 03:40:37;;;;;;;1.63;1.23;;;23.70;91.10;23.30;96217.00;;;;5012907;28;20209;-79
2023/08/25 03:43:04;;;;;;;2.47;1.50;;;23.70;90.80;23.30;96231.00;;;;5019631;28;20226;-80
2023/08/25 03:45:31;;;;;;;2.43;1.57;;;23.70;90.80;23.30;96228.00;;;;5014833;28;20244;-80
2023/08/25 03:48:00;;;;;;;1.30;1.20;;;23.70;91.20;23.30;96219.00;;;;5029965;28;20213;-80
2023/08/25 03:50:28;;;;;;;4.03;1.60;;;23.60;90.90;23.20;96221.00;;;;5023227;28;20263;-80
2023/08/25 03:52:55;;;;;;;2.63;1.30;;;23.60;90.80;23.20;96229.00;;;;5016871;28;20208;-80
2023/08/25 03:55:23;;;;;;;1.97;1.60;;;23.70;90.90;23.20;96229.00;;;;5020853;28;20275;-79
2023/08/25 03:57:51;;;;;;;2.83;1.40;;;23.60;90.90;23.20;96219.00;;;;5019636;28;20205;-80
2023/08/25 04:00:19;;;;;;;2.73;1.63;;;23.60;90.90;23.20;96221.00;;;;5016565;28;20651;-79
2023/08/25 04:02:46;;;;;;;1.20;1.10;;;23.60;90.90;23.20;96219.00;;;;5027842;28;20575;-80
2023/08/25 04:05:13;;;;;;;2.07;1.60;;;23.60;90.90;23.20;96223.00;;;;5012939;28;20243;-79
2023/08/25 04:07:40;;;;;;;1.13;1.10;;;23.60;90.90;23.20;96221.00;;;;5022584;28;20197;-79
2023/08/25 04:10:08;;;;;;;3.07;1.83;;;23.60;90.90;23.20;96221.00;;;;5029394;28;20198;-79
2023/08/25 04:12:35;;;;;;;2.13;1.50;;;23.60;91.00;23.20;96231.00;;;;5023737;28;20518;-80
2023/08/25 04:15:05;;;;;;;1.47;1.37;;;23.60;91.00;23.20;96216.00;;;;5024895;28;20240;-79
2023/08/25 04:17:34;;;;;;;2.30;1.60;;;23.60;90.90;23.20;96210.00;;;;5024317;28;20563;-79
2023/08/25 04:20:02;;;;;;;2.40;1.20;;;23.60;90.90;23.20;96214.00;;;;5017238;28;20571;-79
2023/08/25 04:22:29;;;;;;;2.90;1.40;;;23.60;91.00;23.20;96206.00;;;;5022487;28;20189;-80
2023/08/25 04:24:56;;;;;;;1.53;1.43;;;23.60;91.10;23.20;96209.00;;;;5032235;28;20229;-79
2023/08/25 04:27:23;;;;;;;3.13;1.40;;;23.60;91.40;23.20;96207.00;;;;5030811;28;20197;-79
2023/08/25 04:29:51;;;;;;;2.20;1.70;;;23.60;91.00;23.20;96200.00;;;;5022815;28;20190;-79
2023/08/25 04:32:22;;;;;;;3.03;1.53;;;23.60;90.90;23.20;96197.00;;;;5014690;28;20558;-79
2023/08/25 04:34:49;;;;;;;1.50;1.40;;;23.60;90.90;23.20;96212.00;;;;5023563;28;20250;-79
2023/08/25 04:37:17;;;;;;;1.33;1.23;;;23.60;90.90;23.20;96213.00;;;;5015573;28;20228;-79
2023/08/25 04:39:44;;;;;;;1.43;1.23;;;23.60;91.00;23.20;96212.00;;;;5022062;28;20635;-79
2023/08/25 04:42:11;;;;;;;1.67;1.07;;;23.60;91.00;23.20;96211.00;;;;5013870;28;20209;-79
2023/08/25 04:44:38;;;;;;;1.60;1.50;;;23.60;91.10;23.20;96204.00;;;;5024463;28;20288;-80
2023/08/25 04:47:05;;;;;;;1.63;1.30;;;23.60;91.10;23.20;96187.00;;;;5018844;28;20219;-78
2023/08/25 04:49:34;;;;;;;1.23;1.00;;;23.60;91.10;23.20;96170.00;;;;5018903;28;20646;-79
2023/08/25 04:52:01;;;;;;;1.40;1.20;;;23.60;91.10;23.20;96163.00;;;;5019879;28;20197;-79
2023/08/25 04:54:28;;;;;;;2.03;1.30;;;23.60;91.20;23.20;96157.00;;;;5031762;28;20209;-79
2023/08/25 04:56:56;;;;;;;1.73;1.30;;;23.60;91.30;23.20;96149.00;;;;5026334;28;20728;-79
2023/08/25 04:59:23;;;;;;;3.10;1.40;;;23.60;91.40;23.20;96147.00;;;;5020261;28;20195;-80
2023/08/25 05:01:50;;;;;;;1.80;1.70;;;23.60;91.40;23.30;96148.00;;;;5026481;28;20657;-80
2023/08/25 05:04:17;;;;;;;2.33;1.70;;;23.60;91.30;23.30;96144.00;;;;5023749;28;20228;-79
2023/08/25 05:06:46;;;;;;;1.70;1.57;;;23.60;91.20;23.30;96140.00;;;;5030539;28;20217;-79
2023/08/25 05:09:13;;;;;;;3.30;1.50;;;23.60;91.10;23.30;96130.00;;;;5022947;28;20196;-79
2023/08/25 05:11:40;;;;;;;2.37;1.50;;;23.60;91.20;23.30;96129.00;;;;5024582;28;20193;-79
2023/08/25 05:14:07;;;;;;;1.83;1.60;;;23.60;91.30;23.30;96136.00;;;;5023825;28;20207;-79
2023/08/25 05:16:34;;;;;;;1.63;1.50;;;23.70;91.40;23.30;96136.00;;;;5023486;28;20564;-79
2023/08/25 05:19:01;;;;;;;1.73;1.63;;;23.70;91.50;23.30;96133.00;;;;5016104;28;20206;-79
2023/08/25 05:21:28;;;;;;;2.20;1.40;;;23.70;91.50;23.40;96125.00;;;;5023017;28;20198;-79
2023/08/25 05:24:18;;;;;;;1.47;1.27;;;23.70;91.50;23.40;96117.00;;;;5025049;28;20224;-79
2023/08/25 05:26:47;;;;;;;1.70;1.37;;;23.70;91.10;23.40;96112.00;;;;5011900;28;20300;-79
2023/08/25 05:29:14;;;;;;;1.87;1.67;;;23.80;91.30;23.40;96126.00;;;;5026894;28;20203;-79
2023/08/25 05:31:42;;;;;;;1.43;1.33;;;23.80;91.40;23.40;96141.00;;;;5017431;28;20276;-79
2023/08/25 05:34:10;;;;;;;4.23;1.80;;;23.80;91.50;23.40;96144.00;;;;5009616;28;20221;-79
2023/08/25 05:36:37;;;;;;;2.90;1.70;;;23.80;91.50;23.40;96148.00;;;;5016791;28;20218;-79
2023/08/25 05:39:05;;;;;;;3.50;1.63;;;23.80;91.60;23.40;96137.00;;;;5016942;28;20212;-79
2023/08/25 05:41:33;;;;;;;2.00;1.80;;;23.80;91.60;23.50;96121.00;;;;5021427;28;20248;-79
2023/08/25 05:44:01;;;;;;;1.60;1.50;;;23.80;91.50;23.50;96157.00;;;;5021779;28;20218;-79
2023/08/25 05:46:30;;;;;;;1.63;1.30;;;23.90;91.60;23.50;96161.00;;;;5022443;28;20769;-80
2023/08/25 05:48:57;;;;;;;1.50;1.40;;;23.90;91.60;23.50;96134.00;;;;5022292;28;20198;-79
2023/08/25 05:51:25;;;;;;;1.73;1.50;;;23.90;91.60;23.50;96139.00;;;;5023594;28;20207;-79
2023/08/25 05:53:52;;;;;;;1.87;1.50;;;23.90;91.60;23.60;96126.00;;;;5028707;28;20209;-79
2023/08/25 05:56:20;;;;;;;2.37;1.40;;;23.90;91.60;23.60;96121.00;;;;5033314;28;20224;-79
2023/08/25 05:58:48;;;;;;;1.50;1.40;;;23.90;91.50;23.60;96124.00;;;;5019528;28;20204;-79
2023/08/25 06:01:16;;;;;;;2.70;1.43;;;24.00;91.50;23.60;96120.00;;;;5026706;28;20662;-79
2023/08/25 06:03:43;;;;;;;1.07;1.00;;;24.00;91.60;23.60;96115.00;;;;5030402;28;20227;-79
2023/08/25 06:06:10;;;;;;;2.40;1.37;;;24.00;91.50;23.60;96115.00;;;;5019919;28;20214;-79
2023/08/25 06:08:37;;;;;;;0.97;0.97;;;24.00;91.40;23.60;96113.00;;;;5021588;28;20209;-79
2023/08/25 06:11:05;;;;;;;2.80;1.20;;;24.00;91.50;23.70;96099.00;;;;5030967;28;20197;-79
2023/08/25 06:13:32;;;;;;;1.27;1.17;;;24.00;91.50;23.70;96099.00;;;;5023326;28;20204;-79
2023/08/25 06:16:00;;;;;;;1.60;1.50;;;24.00;91.60;23.70;96091.00;;;;5023045;28;20218;-79
2023/08/25 06:18:27;;;;;;;2.67;1.10;;;24.00;91.70;23.70;96096.00;;;;5023104;28;20194;-79
2023/08/25 06:20:54;;;;;;;1.20;1.10;;;24.10;91.80;23.70;96099.00;;;;4997459;28;20202;-79
2023/08/25 06:23:22;;;;;;;1.30;1.20;;;24.10;92.00;23.80;96094.00;;;;5025037;28;20215;-79
2023/08/25 06:25:49;;;;;;;1.90;1.43;;;24.10;92.10;23.80;96103.00;;;;5026046;28;20244;-79
2023/08/25 06:28:16;;;;;;;1.63;1.53;;;24.20;92.30;23.90;96107.00;;;;5023480;28;20214;-79
2023/08/25 06:30:44;;;;;;;1.87;1.60;;;24.20;92.70;23.90;96100.00;;;;5019522;28;20193;-82
2023/08/25 06:33:14;;;;;;;1.97;1.27;;;24.30;92.60;24.00;96101.00;;;;5018045;28;20194;-82
2023/08/25 06:35:41;;;;;;;1.70;1.60;;;24.30;92.70;24.10;96095.00;;;;5026558;28;20648;-82
2023/08/25 06:38:09;;;;;;;1.73;1.60;;;24.40;92.80;24.20;96094.00;;;;5024352;28;20293;-82
2023/08/25 06:40:36;;;;;;;2.23;1.70;;;24.40;92.80;24.20;96085.00;;;;5021636;28;20201;-82
2023/08/25 06:43:04;;;;;;;3.63;1.80;;;24.50;92.90;24.30;96071.00;;;;5015241;28;20206;-82
2023/08/25 06:45:32;;;;;;;1.60;1.27;;;24.60;92.90;24.30;96065.00;;;;5024477;28;20228;-82
2023/08/25 06:47:59;;;;;;;1.57;1.47;;;24.60;92.90;24.40;96059.00;;;;5033531;28;20585;-82
2023/08/25 06:50:28;;;;;;;2.00;1.50;;;24.70;92.80;24.40;96061.00;;;;5017703;28;20204;-82
2023/08/25 06:52:55;;;;;;;1.60;1.30;;;24.70;92.70;24.50;96062.00;;;;5020198;28;20654;-83
2023/08/25 06:55:25;;;;;;;2.90;1.30;;;24.80;92.90;24.50;96063.00;;;;5016374;28;20225;-83
2023/08/25 06:57:52;;;;;;;1.20;1.10;;;24.80;92.50;24.60;96068.00;;;;5026409;28;20255;-82
2023/08/25 07:00:21;;;;;;;1.60;1.50;;;24.90;92.60;24.60;96072.00;;;;5018379;28;20198;-83
2023/08/25 07:02:48;;;;;;;1.37;1.27;;;24.90;92.60;24.60;96071.00;;;;5023680;28;20205;-83
2023/08/25 07:05:15;;;;;;;1.40;1.30;;;24.90;92.60;24.70;96067.00;;;;5028673;28;20641;-83
2023/08/25 07:07:44;;;;;;;3.00;1.50;;;25.00;92.50;24.70;96072.00;;;;5018030;28;20209;-83
2023/08/25 07:10:14;;;;;;;3.00;1.63;;;25.00;92.40;24.70;96063.00;;;;5024913;28;20796;-83
2023/08/25 07:12:41;;;;;;;4.87;1.60;;;25.10;92.40;24.80;96070.00;;;;5012274;28;20197;-83
2023/08/25 07:15:10;;;;;;;2.20;1.40;;;25.10;92.30;24.80;96078.00;;;;5032017;28;20725;-83
2023/08/25 07:17:37;;;;;;;3.97;2.00;;;25.10;92.30;24.80;96075.00;;;;5014412;28;20280;-82
2023/08/25 07:20:06;;;;;;;1.57;1.47;;;25.10;92.30;24.80;96084.00;;;;5020407;28;20293;-83
2023/08/25 07:22:33;;;;;;;3.17;1.47;;;25.20;92.40;24.90;96084.00;;;;5011785;28;20686;-83
2023/08/25 07:25:02;;;;;;;1.63;1.40;;;25.20;92.50;24.90;96070.00;;;;5021671;28;20225;-83
2023/08/25 07:27:29;;;;;;;1.50;1.40;;;25.20;92.80;25.00;96074.00;;;;5020249;28;20198;-83
2023/08/25 07:29:56;;;;;;;1.40;1.23;;;25.30;92.60;25.00;96079.00;;;;5026773;28;20340;-83
2023/08/25 07:32:23;;;;;;;1.50;1.40;;;25.30;92.70;25.10;96078.00;;;;5020273;28;20193;-83
2023/08/25 07:34:51;;;;;;;1.63;1.53;;;25.40;92.80;25.10;96074.00;;;;5016642;28;20209;-83
2023/08/25 07:37:18;;;;;;;2.90;1.47;;;25.40;92.90;25.20;96067.00;;;;5005625;28;20198;-83
2023/08/25 07:39:52;;;;;;;2.63;1.30;;;25.50;93.00;25.30;96072.00;;;;5025199;28;20197;-83
2023/08/25 07:42:23;;;;;;;2.20;1.47;;;25.50;93.00;25.30;96076.00;;;;5017074;28;20197;-83
2023/08/25 07:44:50;;;;;;;1.00;1.00;;;25.60;93.20;25.40;96082.00;;;;5025674;28;20219;-83
2023/08/25 07:47:17;;;;;;;1.40;1.30;;;25.70;93.30;25.50;96083.00;;;;5014461;28;20213;-83
2023/08/25 07:49:45;;;;;;;1.37;1.27;;;25.70;93.40;25.60;96080.00;;;;5018568;28;20205;-82
2023/08/25 07:52:12;;;;;;;1.30;1.30;;;25.80;93.60;25.70;96102.00;;;;5016169;28;20201;-84
2023/08/25 07:54:39;;;;;;;1.50;1.40;;;25.90;93.70;25.70;96115.00;;;;5019671;28;20194;-81
2023/08/25 07:57:07;;;;;;;2.13;1.50;;;26.00;93.80;25.80;96116.00;;;;5012356;28;20209;-82
2023/08/25 07:59:36;;;;;;;2.63;1.20;;;26.00;93.70;26.00;96135.00;;;;5026932;28;20197;-83
2023/08/25 08:02:03;;;;;;;1.60;1.50;;;26.10;93.30;26.00;96131.00;;;;5020222;28;20583;-84
2023/08/25 08:04:31;;;;;;;2.50;1.50;;;26.20;93.00;26.10;96132.00;;;;5015484;28;20222;-84
2023/08/25 08:07:00;;;;;;;1.47;1.37;;;26.20;92.90;26.10;96143.00;;;;5017774;28;20217;-84
2023/08/25 08:09:28;;;;;;;1.20;1.10;;;26.30;92.90;26.20;96158.00;;;;5021911;28;20264;-83
2023/08/25 08:11:56;;;;;;;1.90;1.77;;;26.40;93.10;26.20;96166.00;;;;5021568;28;20194;-84
2023/08/25 08:14:23;;;;;;;1.97;1.40;;;26.40;93.20;26.30;96185.00;;;;5028493;28;20292;-84
2023/08/25 08:16:51;;;;;;;1.43;1.33;;;26.50;93.30;26.30;96180.00;;;;5017822;28;20586;-84
2023/08/25 08:19:19;;;;;;;1.90;1.33;;;26.50;93.30;26.40;96193.00;;;;5022928;28;20583;-83
2023/08/25 08:21:46;;;;;;;1.83;1.60;;;26.60;93.30;26.40;96185.00;;;;5028150;28;20232;-83
2023/08/25 08:24:13;;;;;;;1.50;1.40;;;26.60;93.10;26.50;96186.00;;;;5025118;28;20197;-83
2023/08/25 08:26:41;;;;;;;2.13;1.70;;;26.70;92.90;26.50;96185.00;;;;5020831;28;20287;-83
2023/08/25 08:29:08;;;;;;;1.40;1.30;;;26.70;92.60;26.50;96194.00;;;;5028799;28;20212;-83
2023/08/25 08:31:35;;;;;;;1.40;1.30;;;26.80;92.50;26.50;96214.00;;;;5029441;28;20221;-83
2023/08/25 08:34:04;;;;;;;1.13;1.10;;;26.80;92.30;26.50;96245.00;;;;5017129;28;20202;-84
2023/08/25 08:36:32;;;;;;;2.70;1.20;;;26.80;92.10;26.50;96276.00;;;;5021631;28;20222;-83
2023/08/25 08:39:02;;;;;;;3.00;1.13;;;26.80;91.80;26.50;96277.00;;;;5007056;28;20672;-84
2023/08/25 08:41:30;;;;;;;1.70;1.60;;;26.80;91.40;26.40;96260.00;;;;5023541;28;20208;-84
2023/08/25 08:44:03;;;;;;;1.67;1.40;;;26.70;91.30;26.40;96251.00;;;;5017238;28;20617;-84
2023/08/25 08:46:35;;;;;;;6.53;1.97;;;26.70;91.00;26.40;96263.00;;;;5023917;28;20280;-84
2023/08/25 08:49:05;;;;;;;1.53;1.43;;;26.70;90.60;26.30;96280.00;;;;5024278;28;20198;-84
2023/08/25 08:51:34;;;;;;;1.73;1.50;;;26.60;90.80;26.30;96292.00;;;;5015821;28;20662;-84
2023/08/25 08:54:06;;;;;;;1.83;1.67;;;26.60;90.90;26.20;96290.00;;;;5025761;28;20201;-82
2023/08/25 08:56:34;;;;;;;2.37;1.50;;;26.50;90.80;26.20;96290.00;;;;5031674;28;20209;-83
2023/08/25 08:59:02;;;;;;;1.87;1.37;;;26.50;90.80;26.10;96317.00;;;;5028403;28;20256;-84
2023/08/25 09:01:31;;;;;;;1.40;1.30;;;26.50;90.80;26.10;96333.00;;;;5018862;28;20205;-84
2023/08/25 09:04:03;;;;;;;1.40;1.30;;;26.50;90.70;26.10;96323.00;;;;5027341;28;20641;-84
2023/08/25 09:06:35;;;;;;;1.37;1.33;;;26.40;90.50;26.00;96359.00;;;;5018228;28;20236;-84
2023/08/25 09:09:05;;;;;;;2.93;1.63;;;26.40;90.50;26.00;96377.00;;;;5021567;28;20217;-84
2023/08/25 09:11:33;;;;;;;1.60;1.50;;;26.40;90.60;26.00;96403.00;;;;5021245;28;20906;-84
2023/08/25 09:14:04;;;;;;;1.70;1.60;;;26.30;90.60;25.90;96418.00;;;;5026665;28;20205;-84
2023/08/25 09:16:33;;;;;;;1.80;1.60;;;26.30;90.50;25.90;96424.00;;;;5025310;28;20245;-84
2023/08/25 09:19:02;;;;;;;1.80;1.70;;;26.30;90.50;25.90;96431.00;;;;5031129;28;20648;-84
2023/08/25 09:21:32;;;;;;;1.90;1.80;;;26.20;90.50;25.80;96406.00;;;;5026114;28;20217;-84
2023/08/25 09:24:04;;;;;;;1.73;1.30;;;26.20;90.50;25.80;96405.00;;;;5025155;28;20197;-85
2023/08/25 09:26:37;;;;;;;1.60;1.50;;;26.20;90.70;25.80;96392.00;;;;5024734;28;20708;-84
2023/08/25 09:29:04;;;;;;;2.00;1.87;;;26.10;90.70;25.80;96383.00;;;;5027036;28;20670;-85
2023/08/25 09:31:33;;;;;;;1.80;1.70;;;26.10;91.00;25.80;96377.00;;;;5028993;28;20202;-84
2023/08/25 09:34:03;;;;;;;2.40;2.20;;;26.10;91.00;25.80;96357.00;;;;5030065;28;20201;-83
2023/08/25 09:36:33;;;;;;;2.07;1.87;;;26.10;90.80;25.80;96365.00;;;;5028667;28;20217;-84
2023/08/25 09:39:02;;;;;;;2.10;1.60;;;26.10;90.40;25.80;96366.00;;;;5022195;28;20194;-85
2023/08/25 09:41:30;;;;;;;2.67;2.00;;;26.10;90.50;25.80;96357.00;;;;5027196;28;20202;-85
2023/08/25 09:43:58;;;;;;;2.47;2.00;;;26.10;90.50;25.80;96338.00;;;;5023749;28;20189;-85
2023/08/25 09:46:29;;;;;;;2.70;2.20;;;26.10;90.40;25.80;96320.00;;;;5021894;28;20697;-85
2023/08/25 09:49:02;;;;;;;2.07;1.80;;;26.10;89.70;25.90;96318.00;;;;5025559;28;20198;-85
2023/08/25 09:51:39;;;;;;;2.13;1.50;;;26.20;89.40;25.90;96312.00;;;;5026417;28;20198;-84
2023/08/25 09:54:09;;;;;;;1.97;1.87;;;26.20;89.30;25.90;96309.00;;;;5024187;28;20201;-84
2023/08/25 09:56:39;;;;;;;4.40;2.27;;;26.20;90.00;25.90;96319.00;;;;5026001;28;20312;-85
2023/08/25 09:59:08;;;;;;;2.00;1.80;;;26.20;90.30;25.90;96346.00;;;;5022338;28;20209;-85
2023/08/25 10:01:37;;;;;;;2.70;2.03;;;26.20;90.50;26.00;96358.00;;;;5022232;28;20586;-86
2023/08/25 10:04:06;;;;;;;2.50;2.30;;;26.20;90.90;26.10;96360.00;;;;5024485;28;20221;-84
2023/08/25 10:06:37;;;;;;;4.53;1.90;;;26.30;91.40;26.20;96359.00;;;;5020539;28;20229;-84
2023/08/25 10:09:06;;;;;;;2.33;2.17;;;26.40;91.20;26.30;96346.00;;;;5024037;28;20579;-87
2023/08/25 10:11:39;;;;;;;3.23;1.70;;;26.50;91.70;26.40;96346.00;;;;5020267;28;20282;-84
2023/08/25 10:14:10;;;;;;;2.17;1.97;;;26.60;91.10;26.50;96352.00;;;;5024574;28;20854;-85
2023/08/25 10:16:42;;;;;;;3.00;2.30;;;26.70;91.20;26.60;96354.00;;;;5017202;28;20296;-85
2023/08/25 10:19:15;;;;;;;2.30;2.17;;;26.80;90.90;26.70;96344.00;;;;5025740;28;20296;-85
2023/08/25 10:21:47;;;;;;;2.80;2.60;;;26.80;91.10;26.80;96369.00;;;;5032643;28;20199;-85
2023/08/25 10:24:17;;;;;;;2.10;1.90;;;26.90;91.30;26.90;96370.00;;;;5023172;28;20198;-85
2023/08/25 10:26:46;;;;;;;2.60;2.00;;;27.00;90.90;26.90;96369.00;;;;5033268;28;20694;-85
2023/08/25 10:29:17;;;;;;;2.58;2.38;;;27.10;90.60;27.00;96384.00;;;;5008162;28;20206;-85
2023/08/25 10:31:50;;;;;;;2.43;2.17;;;27.20;90.70;27.10;96380.00;;;;5027987;28;20672;-85
2023/08/25 10:34:35;;;;;;;2.25;1.83;;;27.30;90.00;27.10;96383.00;;;;5004982;28;20278;-86
2023/08/25 10:37:12;;;;;;;1.90;1.80;;;27.40;88.50;27.20;96386.00;;;;5020671;28;20649;-86
2023/08/25 10:39:48;;;;;;;2.20;2.00;;;27.40;87.30;27.20;96387.00;;;;5026930;28;20198;-85
2023/08/25 10:42:23;;;;;;;1.98;1.88;;;27.50;87.10;27.20;96381.00;;;;5018205;28;20216;-86
2023/08/25 10:44:55;;;;;;;1.90;1.80;;;27.50;86.60;27.20;96373.00;;;;5020023;28;20671;-86
2023/08/25 10:47:23;;;;;;;1.80;1.70;;;27.50;85.10;27.20;96379.00;;;;5016402;28;20214;-84
2023/08/25 10:49:55;;;;;;;1.58;1.48;;;27.50;85.50;27.10;96373.00;;;;5034847;28;20719;-86
2023/08/25 10:52:24;;;;;;;2.17;1.60;;;27.40;84.00;27.10;96378.00;;;;5034191;28;20240;-84
2023/08/25 10:54:53;;;;;;;1.80;1.70;;;27.40;85.50;27.10;96376.00;;;;5034137;28;20224;-84
2023/08/25 10:57:39;;;;;;;2.27;2.07;;;27.40;85.80;27.10;96373.00;;;;5034058;28;20551;-85
2023/08/25 11:00:27;;;;;;;2.10;1.70;;;27.40;86.40;27.10;96377.00;;;;5032710;28;20685;-86
2023/08/25 11:02:54;;;;;;;1.60;1.50;;;27.40;85.70;27.10;96370.00;;;;5033382;28;20266;-86